createdAt,value
2022-10-02T00:02:22.875Z,100591.00
2022-10-02T00:05:22.619Z,100556.53
2022-10-02T00:08:34.461Z,100587.75
2022-10-02T00:11:36.336Z,100587.84
2022-10-02T00:14:24.532Z,100588.91
2022-10-02T00:17:15.741Z,100592.59
2022-10-02T00:20:02.608Z,100591.09
2022-10-02T00:23:02.420Z,100594.03
2022-10-02T00:26:00.329Z,100595.19
2022-10-02T00:29:08.152Z,100586.59
2022-10-02T00:32:27.555Z,100593.81
2022-10-02T00:35:48.435Z,100593.31
2022-10-02T00:38:41.087Z,100598.84
2022-10-02T00:41:55.701Z,100595.59
2022-10-02T00:45:00.955Z,100602.06
2022-10-02T00:48:08.828Z,100600.63
2022-10-02T00:51:01.914Z,100606.22
2022-10-02T00:54:15.429Z,100601.25
2022-10-02T00:57:30.271Z,100604.19
2022-10-02T01:00:31.120Z,100597.22
2022-10-02T01:03:36.254Z,100600.94
2022-10-02T01:06:23.520Z,100594.72
2022-10-02T01:09:10.739Z,100593.13
2022-10-02T01:11:58.464Z,100597.66
2022-10-02T01:14:56.310Z,100605.66
2022-10-02T01:17:47.021Z,100599.03
2022-10-02T01:20:40.094Z,100612.00
2022-10-02T01:23:35.868Z,100610.19
2022-10-02T01:26:23.054Z,100614.56
2022-10-02T01:29:10.056Z,100603.00
2022-10-02T01:31:57.261Z,100612.72
2022-10-02T01:34:44.394Z,100590.19
2022-10-02T01:37:32.474Z,100613.47
2022-10-02T01:40:25.387Z,100609.00
2022-10-02T01:43:13.745Z,100613.47
2022-10-02T01:46:27.767Z,100607.22
2022-10-02T01:49:35.879Z,100616.13
2022-10-02T01:53:16.967Z,100608.22
2022-10-02T01:56:43.257Z,100612.81
2022-10-02T02:00:03.272Z,100615.47
2022-10-02T02:03:07.015Z,100616.34
2022-10-02T02:06:12.405Z,100616.44
2022-10-02T02:09:28.612Z,100613.78
2022-10-02T02:12:23.132Z,100608.38
2022-10-02T02:15:39.963Z,100617.22
2022-10-02T02:18:51.445Z,100612.81
2022-10-02T02:22:06.203Z,100612.81
2022-10-02T02:25:28.566Z,100611.75
2022-10-02T02:28:23.283Z,100618.88
2022-10-02T02:31:13.673Z,100640.97
2022-10-02T02:34:08.170Z,100655.16
2022-10-02T02:37:09.144Z,100653.50
2022-10-02T02:40:17.147Z,100642.75
2022-10-02T02:43:14.480Z,100643.63
2022-10-02T02:46:11.792Z,100632.88
2022-10-02T02:49:09.248Z,100647.91
2022-10-02T02:52:01.025Z,100624.44
2022-10-02T02:54:56.075Z,100633.66
2022-10-02T02:57:48.700Z,100629.09
2022-10-02T03:00:36.440Z,100621.28
2022-10-02T03:03:23.640Z,100638.72
2022-10-02T03:06:16.866Z,100621.09
2022-10-02T03:09:05.716Z,100620.91
2022-10-02T03:12:13.072Z,100623.56
2022-10-02T03:14:59.999Z,100623.56
2022-10-02T03:18:15.164Z,100613.88
2022-10-02T03:21:20.811Z,100615.69
2022-10-02T03:24:10.467Z,100611.22
2022-10-02T03:27:03.552Z,100614.84
2022-10-02T03:29:58.628Z,100606.06
2022-10-02T03:32:47.776Z,100603.41
2022-10-02T03:35:35.185Z,100600.75
2022-10-02T03:38:27.922Z,100609.69
2022-10-02T03:41:15.400Z,100605.28
2022-10-02T03:44:02.400Z,100613.28
2022-10-02T03:46:49.338Z,100610.78
2022-10-02T03:49:36.495Z,100606.44
2022-10-02T03:52:23.436Z,100612.72
2022-10-02T03:55:16.704Z,100616.31
2022-10-02T03:58:04.689Z,100615.53
2022-10-02T04:01:16.955Z,100618.28
2022-10-02T04:04:09.208Z,100615.69
2022-10-02T04:07:11.008Z,100616.63
2022-10-02T04:10:06.860Z,100619.38
2022-10-02T04:12:59.304Z,100627.53
2022-10-02T04:15:58.744Z,100586.19
2022-10-02T04:18:52.393Z,100620.88
2022-10-02T04:22:03.728Z,100613.13
2022-10-02T04:24:50.832Z,100613.13
2022-10-02T04:28:06.818Z,100608.00
2022-10-02T04:30:53.890Z,100619.56
2022-10-02T04:33:44.279Z,100611.66
2022-10-02T04:36:57.241Z,100612.72
2022-10-02T04:40:13.211Z,100623.44
2022-10-02T04:43:18.710Z,100627.16
2022-10-02T04:46:10.951Z,100621.13
2022-10-02T04:49:19.208Z,100623.78
2022-10-02T04:52:27.244Z,100629.28
2022-10-02T04:55:26.212Z,100644.47
2022-10-02T04:58:19.742Z,100648.16
2022-10-02T05:01:16.501Z,100657.06
2022-10-02T05:04:06.258Z,100653.66
2022-10-02T05:07:02.213Z,100652.88
2022-10-02T05:10:00.180Z,100654.66
2022-10-02T05:13:24.636Z,100653.91
2022-10-02T05:16:36.781Z,100655.72
2022-10-02T05:19:54.519Z,100654.94
2022-10-02T05:23:12.039Z,100651.44
2022-10-02T05:26:14.190Z,100649.69
2022-10-02T05:29:18.335Z,100658.63
2022-10-02T05:32:22.801Z,100666.59
2022-10-02T05:35:28.560Z,100657.75
2022-10-02T05:38:25.835Z,100669.25
2022-10-02T05:41:24.834Z,100664.81
2022-10-02T05:44:11.769Z,100676.22
2022-10-02T05:47:17.329Z,100670.13
2022-10-02T05:50:31.572Z,100669.97
2022-10-02T05:53:25.133Z,100680.59
2022-10-02T05:56:22.133Z,100688.50
2022-10-02T05:59:16.073Z,100700.84
2022-10-02T06:02:07.688Z,100692.78
2022-10-02T06:05:00.134Z,100704.22
2022-10-02T06:07:47.861Z,100704.97
2022-10-02T06:10:41.843Z,100691.66
2022-10-02T06:13:39.461Z,100704.84
2022-10-02T06:16:38.752Z,100699.34
2022-10-02T06:19:36.432Z,100690.31
2022-10-02T06:22:35.027Z,100692.13
2022-10-02T06:25:30.556Z,100700.72
2022-10-02T06:28:58.988Z,100697.00
2022-10-02T06:32:03.504Z,100699.59
2022-10-02T06:34:50.583Z,100702.94
2022-10-02T06:37:40.317Z,100708.97
2022-10-02T06:40:33.044Z,100705.19
2022-10-02T06:43:31.023Z,100704.06
2022-10-02T06:46:51.470Z,100710.06
2022-10-02T06:50:12.592Z,100709.81
2022-10-02T06:53:06.096Z,100705.19
2022-10-02T06:56:21.629Z,100705.91
2022-10-02T06:59:46.069Z,100706.66
2022-10-02T07:03:11.436Z,100710.13
2022-10-02T07:06:09.716Z,100711.72
2022-10-02T07:09:16.968Z,100715.19
2022-10-02T07:12:46.276Z,100715.97
2022-10-02T07:15:49.168Z,100716.72
2022-10-02T07:18:54.254Z,100728.16
2022-10-02T07:22:32.417Z,100721.78
2022-10-02T07:25:40.108Z,100722.56
2022-10-02T07:28:48.443Z,100732.19
2022-10-02T07:31:44.380Z,100730.28
2022-10-02T07:34:43.192Z,100689.13
2022-10-02T07:37:51.909Z,100738.88
2022-10-02T07:41:02.803Z,100734.34
2022-10-02T07:44:20.381Z,100738.63
2022-10-02T07:47:29.244Z,100738.44
2022-10-02T07:50:30.507Z,100741.81
2022-10-02T07:53:29.343Z,100742.47
2022-10-02T07:56:16.984Z,100750.28
2022-10-02T07:59:18.795Z,100757.25
2022-10-02T08:02:08.887Z,100757.25
2022-10-02T08:04:56.199Z,100761.47
2022-10-02T08:07:43.339Z,100761.38
2022-10-02T08:10:33.930Z,100763.03
2022-10-02T08:13:30.816Z,100762.16
2022-10-02T08:16:17.943Z,100756.72
2022-10-02T08:19:09.201Z,100766.53
2022-10-02T08:22:02.212Z,100765.50
2022-10-02T08:25:06.775Z,100768.09
2022-10-02T08:28:14.013Z,100779.59
2022-10-02T08:31:01.201Z,100779.50
2022-10-02T08:33:51.505Z,100779.41
2022-10-02T08:36:57.607Z,100790.06
2022-10-02T08:39:53.456Z,100787.50
2022-10-02T08:42:58.491Z,100792.81
2022-10-02T08:46:11.233Z,100789.31
2022-10-02T08:49:19.302Z,100784.06
2022-10-02T08:52:09.207Z,100782.34
2022-10-02T08:55:02.245Z,100785.09
2022-10-02T08:58:11.049Z,100780.72
2022-10-02T09:01:09.567Z,100792.25
2022-10-02T09:04:18.447Z,100787.84
2022-10-02T09:07:43.276Z,100798.50
2022-10-02T09:11:07.672Z,100801.16
2022-10-02T09:14:16.095Z,100789.75
2022-10-02T09:17:44.349Z,100794.22
2022-10-02T09:20:58.944Z,100802.13
2022-10-02T09:24:04.221Z,100800.25
2022-10-02T09:26:51.289Z,100798.34
2022-10-02T09:30:15.852Z,100814.25
2022-10-02T09:33:31.960Z,100808.91
2022-10-02T09:36:33.942Z,100823.97
2022-10-02T09:39:32.951Z,100822.31
2022-10-02T09:42:28.682Z,100825.94
2022-10-02T09:46:29.528Z,100829.56
2022-10-02T09:49:44.095Z,100828.78
2022-10-02T09:53:07.152Z,100826.22
2022-10-02T09:55:55.306Z,100839.63
2022-10-02T09:58:51.605Z,100832.59
2022-10-02T10:01:54.434Z,100827.41
2022-10-02T10:04:21.635Z,100833.69
2022-10-02T10:07:10.156Z,100833.84
2022-10-02T10:09:53.635Z,100830.59
2022-10-02T10:12:41.411Z,100834.28
2022-10-02T10:15:11.044Z,100821.91
2022-10-02T10:18:02.175Z,100827.34
2022-10-02T10:20:50.539Z,100832.75
2022-10-02T10:23:23.484Z,100830.94
2022-10-02T10:25:53.177Z,100823.81
2022-10-02T10:28:22.849Z,100828.09
2022-10-02T10:30:52.886Z,100825.34
2022-10-02T10:33:37.995Z,100827.00
2022-10-02T10:36:44.573Z,100832.25
2022-10-02T10:39:46.376Z,100841.84
2022-10-02T10:42:44.916Z,100845.22
2022-10-02T10:45:38.525Z,100842.72
2022-10-02T10:48:05.556Z,100839.88
2022-10-02T10:51:14.510Z,100839.97
2022-10-02T10:54:01.928Z,100841.59
2022-10-02T10:56:38.102Z,100835.34
2022-10-02T10:59:25.635Z,100836.19
2022-10-02T11:02:43.941Z,100844.97
2022-10-02T11:05:49.419Z,100836.00
2022-10-02T11:08:51.909Z,100834.91
2022-10-02T11:12:17.436Z,100845.41
2022-10-02T11:15:35.671Z,100847.00
2022-10-02T11:18:40.577Z,100852.94
2022-10-02T11:21:59.224Z,100823.44
2022-10-02T11:25:40.053Z,100832.88
2022-10-02T11:29:16.413Z,100833.50
2022-10-02T11:32:12.148Z,100835.03
2022-10-02T11:35:24.284Z,100826.84
2022-10-02T11:38:23.830Z,100841.66
2022-10-02T11:41:32.271Z,100842.22
2022-10-02T11:44:34.025Z,100839.28
2022-10-02T11:47:35.878Z,100839.78
2022-10-02T11:50:58.348Z,100842.97
2022-10-02T11:53:51.376Z,100841.53
2022-10-02T11:57:11.960Z,100841.19
2022-10-02T12:00:27.067Z,100846.16
2022-10-02T12:03:51.486Z,100846.66
2022-10-02T12:06:56.580Z,100855.44
2022-10-02T12:10:05.041Z,100853.34
2022-10-02T12:13:07.272Z,100861.22
2022-10-02T12:16:12.990Z,100855.78
2022-10-02T12:19:30.738Z,100864.53
2022-10-02T12:22:35.489Z,100878.75
2022-10-02T12:25:38.096Z,100871.63
2022-10-02T12:28:29.427Z,100862.06
2022-10-02T12:31:41.687Z,100842.88
2022-10-02T12:34:48.892Z,100861.88
2022-10-02T12:37:50.957Z,100854.09
2022-10-02T12:40:50.455Z,100858.34
2022-10-02T12:44:03.066Z,100858.34
2022-10-02T12:47:13.170Z,100863.59
2022-10-02T12:50:23.527Z,100866.09
2022-10-02T12:53:19.461Z,100864.16
2022-10-02T12:56:38.309Z,100871.16
2022-10-02T12:59:51.592Z,100868.38
2022-10-02T13:03:15.776Z,100865.53
2022-10-02T13:06:17.782Z,100868.00
2022-10-02T13:09:24.150Z,100873.25
2022-10-02T13:12:16.167Z,100876.66
2022-10-02T13:15:21.536Z,100871.28
2022-10-02T13:18:16.444Z,100867.63
2022-10-02T13:21:09.721Z,100876.41
2022-10-02T13:24:21.326Z,100881.66
2022-10-02T13:27:17.006Z,100879.75
2022-10-02T13:30:11.607Z,100882.41
2022-10-02T13:33:09.049Z,100885.94
2022-10-02T13:36:07.628Z,100884.16
2022-10-02T13:39:20.584Z,100898.25
2022-10-02T13:42:37.772Z,100889.31
2022-10-02T13:45:38.522Z,100891.88
2022-10-02T13:48:54.454Z,100884.72
2022-10-02T13:51:51.836Z,100881.09
2022-10-02T13:55:03.859Z,100887.28
2022-10-02T13:58:27.828Z,100898.84
2022-10-02T14:02:19.557Z,100893.50
2022-10-02T14:05:22.376Z,100904.19
2022-10-02T14:08:15.428Z,100911.22
2022-10-02T14:11:18.421Z,100911.22
2022-10-02T14:14:05.541Z,100906.84
2022-10-02T14:17:40.851Z,100905.06
2022-10-02T14:20:55.812Z,100905.16
2022-10-02T14:24:27.031Z,100901.50
2022-10-02T14:27:32.034Z,100911.22
2022-10-02T14:30:41.659Z,100912.97
2022-10-02T14:33:46.477Z,100912.09
2022-10-02T14:36:46.827Z,100899.91
2022-10-02T14:39:36.504Z,100913.81
2022-10-02T14:42:38.561Z,100909.53
2022-10-02T14:45:44.112Z,100917.34
2022-10-02T14:48:53.144Z,100917.34
2022-10-02T14:51:58.345Z,100924.41
2022-10-02T14:55:04.193Z,100929.84
2022-10-02T14:58:29.133Z,100921.81
2022-10-02T15:01:41.689Z,100921.00
2022-10-02T15:04:37.578Z,100922.69
2022-10-02T15:07:26.950Z,100926.34
2022-10-02T15:10:41.161Z,100928.13
2022-10-02T15:13:46.665Z,100929.94
2022-10-02T15:17:06.043Z,100934.53
2022-10-02T15:20:13.839Z,100938.13
2022-10-02T15:23:06.932Z,100932.88
2022-10-02T15:26:15.800Z,100932.97
2022-10-02T15:29:29.925Z,100939.28
2022-10-02T15:32:59.551Z,100931.28
2022-10-02T15:36:05.524Z,100945.59
2022-10-02T15:39:13.722Z,100950.06
2022-10-02T15:42:07.218Z,100944.91
2022-10-02T15:45:48.441Z,100950.16
2022-10-02T15:48:46.044Z,100950.25
2022-10-02T15:51:56.788Z,100952.06
2022-10-02T15:55:07.711Z,100952.25
2022-10-02T15:58:00.778Z,100960.25
2022-10-02T16:00:29.958Z,100957.75
2022-10-02T16:03:23.104Z,100966.66
2022-10-02T16:06:17.488Z,100963.19
2022-10-02T16:09:10.698Z,100957.06
2022-10-02T16:12:14.300Z,100965.19
2022-10-02T16:15:10.159Z,100964.44
2022-10-02T16:18:15.836Z,100966.31
2022-10-02T16:21:08.479Z,100964.72
2022-10-02T16:24:10.149Z,100973.75
2022-10-02T16:27:27.796Z,100976.69
2022-10-02T16:30:33.683Z,100974.19
2022-10-02T16:33:35.009Z,100982.34
2022-10-02T16:36:34.148Z,100977.09
2022-10-02T16:39:58.739Z,100987.03
2022-10-02T16:42:54.533Z,100976.44
2022-10-02T16:46:01.866Z,100981.09
2022-10-02T16:48:59.536Z,100979.34
2022-10-02T16:51:53.200Z,100980.31
2022-10-02T16:54:49.049Z,100986.59
2022-10-02T16:57:55.054Z,100987.53
2022-10-02T17:00:41.991Z,100987.53
2022-10-02T17:03:41.016Z,100981.44
2022-10-02T17:07:00.204Z,100986.00
2022-10-02T17:09:59.440Z,100987.03
2022-10-02T17:13:07.763Z,100997.03
2022-10-02T17:16:09.202Z,100991.88
2022-10-02T17:19:01.447Z,100978.78
2022-10-02T17:22:11.720Z,100987.75
2022-10-02T17:25:12.559Z,100987.94
2022-10-02T17:28:05.173Z,100989.91
2022-10-02T17:31:25.878Z,100988.16
2022-10-02T17:34:17.568Z,100993.66
2022-10-02T17:37:25.819Z,100991.09
2022-10-02T17:40:30.609Z,100995.66
2022-10-02T17:43:48.601Z,100998.41
2022-10-02T17:46:56.524Z,101002.00
2022-10-02T17:49:46.127Z,101004.69
2022-10-02T17:52:50.173Z,101007.44
2022-10-02T17:55:50.753Z,101013.72
2022-10-02T17:59:01.002Z,101015.44
2022-10-02T18:01:53.021Z,101016.41
2022-10-02T18:04:45.992Z,101025.28
2022-10-02T18:07:34.761Z,101022.59
2022-10-02T18:10:37.480Z,101020.78
2022-10-02T18:13:10.415Z,101028.78
2022-10-02T18:16:32.422Z,101026.19
2022-10-02T18:19:44.435Z,101040.50
2022-10-02T18:22:49.558Z,101038.78
2022-10-02T18:25:55.089Z,101043.31
2022-10-02T18:29:03.677Z,101043.59
2022-10-02T18:31:56.322Z,101047.97
2022-10-02T18:34:55.456Z,101043.66
2022-10-02T18:38:16.930Z,101045.53
2022-10-02T18:41:12.679Z,101048.31
2022-10-02T18:44:12.084Z,101049.16
2022-10-02T18:47:09.705Z,101044.72
2022-10-02T18:50:06.100Z,101053.63
2022-10-02T18:53:26.881Z,101053.63
2022-10-02T18:56:29.944Z,101066.03
2022-10-02T18:59:29.664Z,101065.97
2022-10-02T19:02:22.216Z,101058.81
2022-10-02T19:05:27.131Z,101059.59
2022-10-02T19:08:22.719Z,101055.03
2022-10-02T19:11:09.568Z,101057.63
2022-10-02T19:14:01.037Z,101067.34
2022-10-02T19:16:49.876Z,101060.22
2022-10-02T19:19:40.782Z,101070.72
2022-10-02T19:22:43.428Z,101071.47
2022-10-02T19:25:35.413Z,101072.25
2022-10-02T19:28:24.035Z,101064.34
2022-10-02T19:31:27.446Z,101055.72
2022-10-02T19:34:18.426Z,101076.47
2022-10-02T19:37:11.572Z,101082.59
2022-10-02T19:40:02.358Z,101080.78
2022-10-02T19:42:58.164Z,101085.97
2022-10-02T19:45:48.982Z,101089.41
2022-10-02T19:48:38.709Z,101091.13
2022-10-02T19:51:35.137Z,101090.16
2022-10-02T19:54:27.432Z,101090.16
2022-10-02T19:57:22.117Z,101076.81
2022-10-02T20:00:11.619Z,101089.25
2022-10-02T20:03:05.872Z,101096.47
2022-10-02T20:05:55.676Z,101099.22
2022-10-02T20:08:49.367Z,101095.66
2022-10-02T20:11:55.569Z,101096.63
2022-10-02T20:15:08.773Z,101100.31
2022-10-02T20:17:57.356Z,101091.38
2022-10-02T20:20:44.490Z,101099.47
2022-10-02T20:23:37.109Z,101097.63
2022-10-02T20:26:27.834Z,101090.50
2022-10-02T20:29:19.183Z,101090.41
2022-10-02T20:32:15.261Z,101094.88
2022-10-02T20:35:07.556Z,101093.97
2022-10-02T20:37:55.924Z,101101.00
2022-10-02T20:40:47.528Z,101096.53
2022-10-02T20:43:55.432Z,101095.59
2022-10-02T20:46:54.200Z,101103.59
2022-10-02T20:50:08.792Z,101103.59
2022-10-02T20:52:58.722Z,101096.53
2022-10-02T20:55:52.016Z,101106.34
2022-10-02T20:59:04.148Z,101105.50
2022-10-02T21:02:13.850Z,101107.22
2022-10-02T21:05:12.703Z,101109.97
2022-10-02T21:08:14.921Z,101105.56
2022-10-02T21:11:36.322Z,101108.16
2022-10-02T21:14:50.090Z,101101.00
2022-10-02T21:17:52.352Z,101076.13
2022-10-02T21:20:58.090Z,101103.59
2022-10-02T21:24:10.018Z,101100.94
2022-10-02T21:27:00.095Z,101101.78
2022-10-02T21:30:05.288Z,101101.63
2022-10-02T21:33:19.903Z,101108.75
2022-10-02T21:36:11.129Z,101109.63
2022-10-02T21:39:39.935Z,101107.91
2022-10-02T21:42:40.956Z,101110.59
2022-10-02T21:45:36.870Z,101111.50
2022-10-02T21:48:46.986Z,101108.00
2022-10-02T21:51:42.606Z,101117.81
2022-10-02T21:55:11.035Z,101117.81
2022-10-02T21:58:20.863Z,101118.75
2022-10-02T22:01:57.478Z,101114.25
2022-10-02T22:05:10.047Z,101117.88
2022-10-02T22:08:05.866Z,101117.03
2022-10-02T22:11:00.497Z,101125.03
2022-10-02T22:13:58.829Z,101122.44
2022-10-02T22:17:00.867Z,101127.84
2022-10-02T22:20:07.333Z,101131.47
2022-10-02T22:23:16.233Z,101129.06
2022-10-02T22:26:18.308Z,101131.81
2022-10-02T22:29:30.004Z,101119.47
2022-10-02T22:32:29.888Z,101125.78
2022-10-02T22:35:25.074Z,101123.91
2022-10-02T22:38:14.877Z,101123.91
2022-10-02T22:41:10.971Z,101129.16
2022-10-02T22:44:37.388Z,101122.94
2022-10-02T22:47:30.763Z,101127.31
2022-10-02T22:50:23.357Z,101122.84
2022-10-02T22:53:31.693Z,101121.91
2022-10-02T22:56:18.623Z,101127.25
2022-10-02T22:59:13.856Z,101135.16
2022-10-02T23:02:13.898Z,101139.56
2022-10-02T23:05:12.647Z,101141.28
2022-10-02T23:08:19.728Z,101143.00
2022-10-02T23:11:19.593Z,101133.28
2022-10-02T23:14:38.016Z,101141.28
2022-10-02T23:17:33.099Z,101143.00
2022-10-02T23:20:39.642Z,101136.81
2022-10-02T23:23:44.881Z,101139.41
2022-10-02T23:26:45.436Z,101138.53
2022-10-02T23:30:05.870Z,101140.31
2022-10-02T23:32:55.328Z,101146.63
2022-10-02T23:36:08.712Z,101144.91
2022-10-02T23:39:13.852Z,101144.91
2022-10-02T23:42:08.362Z,101136.38
2022-10-02T23:45:06.175Z,101143.25
2022-10-02T23:48:07.867Z,101140.66
2022-10-02T23:51:05.656Z,101143.50
2022-10-02T23:54:14.389Z,101145.31
2022-10-02T23:57:28.674Z,101135.56
